sensor_id;sensor_type;location;lat;lon;timestamp;pressure;altitude;pressure_sealevel;temperature;humidity
13015;BME280;6573;57.696;11.950;2023-03-01T00:00:32;102984.31;;;5.09;100.00
13015;BME280;6573;57.696;11.950;2023-03-01T00:03:03;103004.31;;;5.08;100.00
13015;BME280;6573;57.696;11.950;2023-03-01T00:05:34;102929.94;;;4.84;100.00
13015;BME280;6573;57.696;11.950;2023-03-01T00:08:13;102890.09;;;4.71;100.00
13015;BME280;6573;57.696;11.950;2023-03-01T00:10:42;102935.00;;;4.81;100.00
13015;BME280;6573;57.696;11.950;2023-03-01T00:13:11;102996.63;;;4.95;100.00
13015;BME280;6573;57.696;11.950;2023-03-01T00:15:42;103004.44;;;4.95;100.00
13015;BME280;6573;57.696;11.950;2023-03-01T00:18:13;102922.91;;;4.67;100.00
13015;BME280;6573;57.696;11.950;2023-03-01T00:20:51;102879.38;;;4.34;100.00
13015;BME280;6573;57.696;11.950;2023-03-01T00:23:22;103011.91;;;4.89;100.00
13015;BME280;6573;57.696;11.950;2023-03-01T00:25:53;102952.72;;;4.56;100.00
13015;BME280;6573;57.696;11.950;2023-03-01T00:28:25;102940.00;;;4.62;100.00
13015;BME280;6573;57.696;11.950;2023-03-01T00:31:09;103004.63;;;4.98;100.00
13015;BME280;6573;57.696;11.950;2023-03-01T00:33:42;102972.78;;;4.73;100.00
13015;BME280;6573;57.696;11.950;2023-03-01T00:36:12;103010.28;;;4.91;100.00
13015;BME280;6573;57.696;11.950;2023-03-01T00:38:47;102928.09;;;4.51;100.00
13015;BME280;6573;57.696;11.950;2023-03-01T00:41:17;102984.19;;;4.91;100.00
13015;BME280;6573;57.696;11.950;2023-03-01T00:43:52;102990.13;;;5.03;100.00
13015;BME280;6573;57.696;11.950;2023-03-01T00:46:28;102991.56;;;4.98;100.00
13015;BME280;6573;57.696;11.950;2023-03-01T00:49:03;103008.34;;;4.87;100.00
13015;BME280;6573;57.696;11.950;2023-03-01T00:51:34;102950.72;;;4.52;100.00
13015;BME280;6573;57.696;11.950;2023-03-01T00:54:07;103012.25;;;4.95;100.00
13015;BME280;6573;57.696;11.950;2023-03-01T00:56:40;102999.72;;;4.88;100.00
13015;BME280;6573;57.696;11.950;2023-03-01T00:59:15;102995.16;;;5.00;100.00
13015;BME280;6573;57.696;11.950;2023-03-01T01:01:43;102885.38;;;4.33;100.00
13015;BME280;6573;57.696;11.950;2023-03-01T01:04:13;103012.44;;;4.98;100.00
13015;BME280;6573;57.696;11.950;2023-03-01T01:06:45;103012.25;;;4.95;100.00
13015;BME280;6573;57.696;11.950;2023-03-01T01:09:19;102927.75;;;4.45;100.00
13015;BME280;6573;57.696;11.950;2023-03-01T01:11:52;102941.22;;;4.52;100.00
13015;BME280;6573;57.696;11.950;2023-03-01T01:14:21;103005.06;;;4.91;100.00
13015;BME280;6573;57.696;11.950;2023-03-01T01:16:53;102967.56;;;4.73;100.00
13015;BME280;6573;57.696;11.950;2023-03-01T01:19:22;102885.22;;;4.30;100.00
13015;BME280;6573;57.696;11.950;2023-03-01T01:21:55;102912.47;;;4.51;100.00
13015;BME280;6573;57.696;11.950;2023-03-01T01:24:29;102930.00;;;4.70;100.00
13015;BME280;6573;57.696;11.950;2023-03-01T01:27:05;103004.13;;;5.21;100.00
13015;BME280;6573;57.696;11.950;2023-03-01T01:29:49;102997.94;;;5.19;100.00
13015;BME280;6573;57.696;11.950;2023-03-01T01:32:31;102926.53;;;4.85;100.00
13015;BME280;6573;57.696;11.950;2023-03-01T01:35:00;102914.13;;;4.81;100.00
13015;BME280;6573;57.696;11.950;2023-03-01T01:37:29;102997.28;;;5.07;100.00
13015;BME280;6573;57.696;11.950;2023-03-01T01:40:01;102894.78;;;4.45;100.00
13015;BME280;6573;57.696;11.950;2023-03-01T01:42:31;102991.34;;;5.10;100.00
13015;BME280;6573;57.696;11.950;2023-03-01T01:45:26;102983.00;;;5.17;100.00
13015;BME280;6573;57.696;11.950;2023-03-01T01:47:59;102936.59;;;4.79;100.00
13015;BME280;6573;57.696;11.950;2023-03-01T01:50:29;102882.28;;;4.40;100.00
13015;BME280;6573;57.696;11.950;2023-03-01T01:53:08;102991.41;;;4.95;100.00
13015;BME280;6573;57.696;11.950;2023-03-01T01:55:43;102964.84;;;4.72;100.00
13015;BME280;6573;57.696;11.950;2023-03-01T01:58:15;102943.25;;;4.58;100.00
13015;BME280;6573;57.696;11.950;2023-03-01T02:00:46;102991.22;;;4.92;100.00
13015;BME280;6573;57.696;11.950;2023-03-01T02:03:18;102918.47;;;4.34;100.00
13015;BME280;6573;57.696;11.950;2023-03-01T02:05:55;102865.22;;;3.83;100.00
13015;BME280;6573;57.696;11.950;2023-03-01T02:08:27;102929.78;;;4.20;100.00
13015;BME280;6573;57.696;11.950;2023-03-01T02:11:03;102916.44;;;4.14;100.00
13015;BME280;6573;57.696;11.950;2023-03-01T02:13:33;102972.13;;;4.61;100.00
13015;BME280;6573;57.696;11.950;2023-03-01T02:16:03;102956.53;;;4.46;100.00
13015;BME280;6573;57.696;11.950;2023-03-01T02:18:33;102967.81;;;4.47;100.00
13015;BME280;6573;57.696;11.950;2023-03-01T02:21:11;102861.28;;;3.75;100.00
13015;BME280;6573;57.696;11.950;2023-03-01T02:23:45;102957.97;;;4.27;100.00
13015;BME280;6573;57.696;11.950;2023-03-01T02:26:23;102919.03;;;4.14;100.00
13015;BME280;6573;57.696;11.950;2023-03-01T02:29:02;102933.22;;;4.19;100.00
13015;BME280;6573;57.696;11.950;2023-03-01T02:31:36;102956.94;;;4.09;100.00
13015;BME280;6573;57.696;11.950;2023-03-01T02:34:14;102871.06;;;3.50;100.00
13015;BME280;6573;57.696;11.950;2023-03-01T02:36:46;102851.53;;;3.42;100.00
13015;BME280;6573;57.696;11.950;2023-03-01T02:39:18;102959.66;;;3.96;100.00
13015;BME280;6573;57.696;11.950;2023-03-01T02:41:51;102954.25;;;3.92;100.00
13015;BME280;6573;57.696;11.950;2023-03-01T02:44:22;102955.09;;;3.91;100.00
13015;BME280;6573;57.696;11.950;2023-03-01T02:46:52;102919.91;;;3.69;100.00
13015;BME280;6573;57.696;11.950;2023-03-01T02:49:23;102901.03;;;3.58;100.00
13015;BME280;6573;57.696;11.950;2023-03-01T02:52:19;102921.97;;;3.74;100.00
13015;BME280;6573;57.696;11.950;2023-03-01T02:54:54;102919.25;;;3.87;100.00
13015;BME280;6573;57.696;11.950;2023-03-01T02:57:28;102867.22;;;3.58;100.00
13015;BME280;6573;57.696;11.950;2023-03-01T03:00:03;102933.88;;;3.85;100.00
13015;BME280;6573;57.696;11.950;2023-03-01T03:02:36;102927.69;;;3.83;100.00
13015;BME280;6573;57.696;11.950;2023-03-01T03:05:08;102930.03;;;3.93;100.00
13015;BME280;6573;57.696;11.950;2023-03-01T03:07:39;102956.94;;;4.09;100.00
13015;BME280;6573;57.696;11.950;2023-03-01T03:10:10;102937.56;;;4.04;100.00
13015;BME280;6573;57.696;11.950;2023-03-01T03:12:40;102951.75;;;4.09;100.00
13015;BME280;6573;57.696;11.950;2023-03-01T03:15:10;102945.13;;;3.84;100.00
13015;BME280;6573;57.696;11.950;2023-03-01T03:17:41;102917.47;;;3.72;100.00
13015;BME280;6573;57.696;11.950;2023-03-01T03:20:14;102919.78;;;3.67;100.00
13015;BME280;6573;57.696;11.950;2023-03-01T03:22:46;102913.16;;;3.72;100.00
13015;BME280;6573;57.696;11.950;2023-03-01T03:25:16;102904.34;;;3.70;100.00
13015;BME280;6573;57.696;11.950;2023-03-01T03:27:46;102853.25;;;3.27;100.00
13015;BME280;6573;57.696;11.950;2023-03-01T03:30:23;102941.16;;;3.76;100.00
13015;BME280;6573;57.696;11.950;2023-03-01T03:32:52;102942.94;;;3.77;100.00
13015;BME280;6573;57.696;11.950;2023-03-01T03:35:22;102914.97;;;3.59;100.00
13015;BME280;6573;57.696;11.950;2023-03-01T03:37:52;102935.78;;;3.73;100.00
13015;BME280;6573;57.696;11.950;2023-03-01T03:40:35;102879.06;;;3.53;100.00
13015;BME280;6573;57.696;11.950;2023-03-01T03:43:05;102900.25;;;3.59;100.00
13015;BME280;6573;57.696;11.950;2023-03-01T03:45:43;102932.72;;;3.80;100.00
13015;BME280;6573;57.696;11.950;2023-03-01T03:48:12;102850.00;;;3.31;100.00
13015;BME280;6573;57.696;11.950;2023-03-01T03:50:47;102941.16;;;3.76;100.00
13015;BME280;6573;57.696;11.950;2023-03-01T03:53:17;102836.09;;;3.16;100.00
13015;BME280;6573;57.696;11.950;2023-03-01T03:55:46;102814.19;;;2.98;100.00
13015;BME280;6573;57.696;11.950;2023-03-01T03:58:17;102897.53;;;3.43;100.00
13015;BME280;6573;57.696;11.950;2023-03-01T04:00:49;102879.41;;;3.30;100.00
13015;BME280;6573;57.696;11.950;2023-03-01T04:03:19;102845.13;;;3.08;100.00
13015;BME280;6573;57.696;11.950;2023-03-01T04:05:50;102798.69;;;2.85;100.00
13015;BME280;6573;57.696;11.950;2023-03-01T04:08:21;102893.56;;;3.35;100.00
13015;BME280;6573;57.696;11.950;2023-03-01T04:10:52;102934.53;;;3.52;100.00
13015;BME280;6573;57.696;11.950;2023-03-01T04:13:24;102910.63;;;3.30;100.00
13015;BME280;6573;57.696;11.950;2023-03-01T04:15:55;102918.34;;;3.43;100.00
13015;BME280;6573;57.696;11.950;2023-03-01T04:18:23;102905.00;;;3.37;100.00
13015;BME280;6573;57.696;11.950;2023-03-01T04:20:53;102946.91;;;3.56;100.00
13015;BME280;6573;57.696;11.950;2023-03-01T04:23:25;102880.09;;;3.13;100.00
13015;BME280;6573;57.696;11.950;2023-03-01T04:25:56;102916.19;;;3.36;100.00
13015;BME280;6573;57.696;11.950;2023-03-01T04:28:28;102955.69;;;3.58;100.00
13015;BME280;6573;57.696;11.950;2023-03-01T04:31:03;102910.28;;;3.24;100.00
13015;BME280;6573;57.696;11.950;2023-03-01T04:33:44;102953.53;;;3.51;100.00
13015;BME280;6573;57.696;11.950;2023-03-01T04:36:15;102907.94;;;3.43;100.00
13015;BME280;6573;57.696;11.950;2023-03-01T04:38:45;102954.97;;;3.75;100.00
13015;BME280;6573;57.696;11.950;2023-03-01T04:41:15;102947.28;;;3.91;100.00
13015;BME280;6573;57.696;11.950;2023-03-01T04:43:44;102844.78;;;3.46;100.00
13015;BME280;6573;57.696;11.950;2023-03-01T04:46:16;102909.19;;;3.93;100.00
13015;BME280;6573;57.696;11.950;2023-03-01T04:48:46;102931.09;;;3.82;100.00
13015;BME280;6573;57.696;11.950;2023-03-01T04:51:15;102901.31;;;3.48;100.00
13015;BME280;6573;57.696;11.950;2023-03-01T04:53:45;102928.94;;;3.61;100.00
13015;BME280;6573;57.696;11.950;2023-03-01T04:56:17;102904.56;;;3.59;100.00
13015;BME280;6573;57.696;11.950;2023-03-01T04:58:46;102923.22;;;3.66;100.00
13015;BME280;6573;57.696;11.950;2023-03-01T05:01:19;102880.16;;;3.42;100.00
13015;BME280;6573;57.696;11.950;2023-03-01T05:03:49;102910.66;;;3.59;100.00
13015;BME280;6573;57.696;11.950;2023-03-01T05:06:20;102913.53;;;3.49;100.00
13015;BME280;6573;57.696;11.950;2023-03-01T05:08:50;102880.84;;;3.25;100.00
13015;BME280;6573;57.696;11.950;2023-03-01T05:11:18;102915.22;;;3.34;100.00
13015;BME280;6573;57.696;11.950;2023-03-01T05:13:47;102826.44;;;2.86;100.00
13015;BME280;6573;57.696;11.950;2023-03-01T05:16:19;102888.91;;;3.15;100.00
13015;BME280;6573;57.696;11.950;2023-03-01T05:18:49;102904.38;;;3.41;100.00
13015;BME280;6573;57.696;11.950;2023-03-01T05:21:18;102899.16;;;3.41;100.00
13015;BME280;6573;57.696;11.950;2023-03-01T05:23:47;102889.47;;;3.24;100.00
13015;BME280;6573;57.696;11.950;2023-03-01T05:26:16;102905.78;;;3.36;100.00
13015;BME280;6573;57.696;11.950;2023-03-01T05:28:54;102904.16;;;3.38;100.00
13015;BME280;6573;57.696;11.950;2023-03-01T05:31:28;102896.03;;;3.32;100.00
13015;BME280;6573;57.696;11.950;2023-03-01T05:34:01;102801.19;;;2.98;100.00
13015;BME280;6573;57.696;11.950;2023-03-01T05:36:30;102873.84;;;3.53;100.00
13015;BME280;6573;57.696;11.950;2023-03-01T05:38:59;102835.75;;;3.39;100.00
13015;BME280;6573;57.696;11.950;2023-03-01T05:41:28;102874.94;;;3.71;100.00
13015;BME280;6573;57.696;11.950;2023-03-01T05:43:56;102895.22;;;3.77;100.00
13015;BME280;6573;57.696;11.950;2023-03-01T05:46:25;102899.44;;;3.60;100.00
13015;BME280;6573;57.696;11.950;2023-03-01T05:48:59;102862.22;;;3.32;100.00
13015;BME280;6573;57.696;11.950;2023-03-01T05:51:29;102888.69;;;3.54;100.00
13015;BME280;6573;57.696;11.950;2023-03-01T05:53:58;102892.06;;;3.53;100.00
13015;BME280;6573;57.696;11.950;2023-03-01T05:56:26;102896.75;;;3.44;100.00
13015;BME280;6573;57.696;11.950;2023-03-01T05:58:56;102891.16;;;3.38;100.00
13015;BME280;6573;57.696;11.950;2023-03-01T06:01:25;102877.63;;;3.29;100.00
13015;BME280;6573;57.696;11.950;2023-03-01T06:04:00;102893.94;;;3.26;100.00
13015;BME280;6573;57.696;11.950;2023-03-01T06:06:29;102916.19;;;3.36;100.00
13015;BME280;6573;57.696;11.950;2023-03-01T06:08:58;102917.00;;;3.35;100.00
13015;BME280;6573;57.696;11.950;2023-03-01T06:11:26;102834.25;;;2.86;100.00
13015;BME280;6573;57.696;11.950;2023-03-01T06:13:55;102858.66;;;2.88;100.00
13015;BME280;6573;57.696;11.950;2023-03-01T06:16:23;102823.03;;;2.72;100.00
13015;BME280;6573;57.696;11.950;2023-03-01T06:18:52;102922.81;;;3.31;100.00
13015;BME280;6573;57.696;11.950;2023-03-01T06:21:23;102929.66;;;3.29;100.00
13015;BME280;6573;57.696;11.950;2023-03-01T06:23:52;102872.72;;;2.91;100.00
13015;BME280;6573;57.696;11.950;2023-03-01T06:26:23;102942.91;;;3.19;100.00
13015;BME280;6573;57.696;11.950;2023-03-01T06:28:52;102939.88;;;3.26;100.00
13015;BME280;6573;57.696;11.950;2023-03-01T06:31:21;102910.22;;;2.95;100.00
13015;BME280;6573;57.696;11.950;2023-03-01T06:33:49;102945.34;;;3.03;100.00
13015;BME280;6573;57.696;11.950;2023-03-01T06:36:18;102928.84;;;2.88;100.00
13015;BME280;6573;57.696;11.950;2023-03-01T06:38:50;102950.38;;;3.00;100.00
13015;BME280;6573;57.696;11.950;2023-03-01T06:41:22;102890.31;;;2.68;100.00
13015;BME280;6573;57.696;11.950;2023-03-01T06:43:50;102931.19;;;2.98;100.00
13015;BME280;6573;57.696;11.950;2023-03-01T06:46:21;102949.84;;;3.05;100.00
13015;BME280;6573;57.696;11.950;2023-03-01T06:48:50;102912.81;;;2.95;100.00
13015;BME280;6573;57.696;11.950;2023-03-01T06:51:19;102942.16;;;3.07;100.00
13015;BME280;6573;57.696;11.950;2023-03-01T06:53:49;102957.94;;;3.10;100.00
13015;BME280;6573;57.696;11.950;2023-03-01T06:56:18;102966.53;;;3.09;100.00
13015;BME280;6573;57.696;11.950;2023-03-01T06:58:47;102974.31;;;3.22;100.00
13015;BME280;6573;57.696;11.950;2023-03-01T07:01:15;102977.88;;;3.24;100.00
13015;BME280;6573;57.696;11.950;2023-03-01T07:03:43;102919.75;;;3.09;100.00
13015;BME280;6573;57.696;11.950;2023-03-01T07:06:12;102956.44;;;3.28;100.00
13015;BME280;6573;57.696;11.950;2023-03-01T07:08:41;102968.41;;;3.39;100.00
13015;BME280;6573;57.696;11.950;2023-03-01T07:11:11;102980.97;;;3.46;100.00
13015;BME280;6573;57.696;11.950;2023-03-01T07:13:40;102954.97;;;3.46;100.00
13015;BME280;6573;57.696;11.950;2023-03-01T07:16:09;102979.28;;;3.47;100.00
13015;BME280;6573;57.696;11.950;2023-03-01T07:18:37;102970.19;;;3.40;100.00
13015;BME280;6573;57.696;11.950;2023-03-01T07:21:06;102984.75;;;3.51;100.00
13015;BME280;6573;57.696;11.950;2023-03-01T07:23:35;102930.16;;;3.23;100.00
13015;BME280;6573;57.696;11.950;2023-03-01T07:26:04;102868.88;;;2.85;100.00
13015;BME280;6573;57.696;11.950;2023-03-01T07:28:34;102885.31;;;3.13;100.00
13015;BME280;6573;57.696;11.950;2023-03-01T07:31:06;102992.50;;;3.64;100.00
13015;BME280;6573;57.696;11.950;2023-03-01T07:33:36;102992.84;;;3.70;100.00
13015;BME280;6573;57.696;11.950;2023-03-01T07:36:05;102924.63;;;3.32;100.00
13015;BME280;6573;57.696;11.950;2023-03-01T07:38:34;102901.84;;;3.28;100.00
13015;BME280;6573;57.696;11.950;2023-03-01T07:41:06;102986.78;;;3.99;100.00
13015;BME280;6573;57.696;11.950;2023-03-01T07:43:36;102929.41;;;3.68;100.00
13015;BME280;6573;57.696;11.950;2023-03-01T07:46:05;102985.16;;;3.86;100.00
13015;BME280;6573;57.696;11.950;2023-03-01T07:48:34;103013.69;;;4.00;100.00
13015;BME280;6573;57.696;11.950;2023-03-01T07:51:05;102924.66;;;3.61;100.00
13015;BME280;6573;57.696;11.950;2023-03-01T07:53:33;103008.41;;;4.13;100.00
13015;BME280;6573;57.696;11.950;2023-03-01T07:56:04;102911.72;;;3.77;100.00
13015;BME280;6573;57.696;11.950;2023-03-01T07:58:41;103002.34;;;4.43;100.00
13015;BME280;6573;57.696;11.950;2023-03-01T08:01:13;102939.19;;;4.02;100.00
13015;BME280;6573;57.696;11.950;2023-03-01T08:03:43;103004.16;;;4.44;100.00
13015;BME280;6573;57.696;11.950;2023-03-01T08:06:13;103015.09;;;4.53;100.00
13015;BME280;6573;57.696;11.950;2023-03-01T08:08:42;103015.28;;;4.56;100.00
13015;BME280;6573;57.696;11.950;2023-03-01T08:11:12;102997.66;;;4.52;100.00
13015;BME280;6573;57.696;11.950;2023-03-01T08:13:43;103013.22;;;4.81;100.00
13015;BME280;6573;57.696;11.950;2023-03-01T08:16:13;103014.09;;;4.82;100.00
13015;BME280;6573;57.696;11.950;2023-03-01T08:18:42;103016.81;;;4.99;100.00
13015;BME280;6573;57.696;11.950;2023-03-01T08:21:12;103016.84;;;5.15;100.00
13015;BME280;6573;57.696;11.950;2023-03-01T08:23:42;102956.00;;;4.84;100.00
13015;BME280;6573;57.696;11.950;2023-03-01T08:26:13;103019.16;;;5.26;100.00
13015;BME280;6573;57.696;11.950;2023-03-01T08:28:45;103011.00;;;5.36;100.00
13015;BME280;6573;57.696;11.950;2023-03-01T08:31:21;103000.41;;;5.33;100.00
13015;BME280;6573;57.696;11.950;2023-03-01T08:33:53;103009.84;;;5.47;100.00
13015;BME280;6573;57.696;11.950;2023-03-01T08:36:23;102972.56;;;5.17;100.00
13015;BME280;6573;57.696;11.950;2023-03-01T08:38:53;102979.50;;;5.33;100.00
13015;BME280;6573;57.696;11.950;2023-03-01T08:41:22;103009.66;;;5.44;100.00
13015;BME280;6573;57.696;11.950;2023-03-01T08:43:52;103015.41;;;5.53;100.00
13015;BME280;6573;57.696;11.950;2023-03-01T08:46:26;103008.38;;;5.52;100.00
13015;BME280;6573;57.696;11.950;2023-03-01T08:48:56;103015.75;;;5.76;100.00
13015;BME280;6573;57.696;11.950;2023-03-01T08:51:25;103018.13;;;5.88;100.00
13015;BME280;6573;57.696;11.950;2023-03-01T08:53:54;103022.38;;;5.86;100.00
13015;BME280;6573;57.696;11.950;2023-03-01T08:56:22;103013.91;;;5.90;100.00
13015;BME280;6573;57.696;11.950;2023-03-01T08:58:52;102936.28;;;5.38;100.00
13015;BME280;6573;57.696;11.950;2023-03-01T09:01:21;103016.75;;;5.95;100.00
13015;BME280;6573;57.696;11.950;2023-03-01T09:03:49;103009.75;;;6.11;100.00
13015;BME280;6573;57.696;11.950;2023-03-01T09:06:18;103009.97;;;6.16;100.00
13015;BME280;6573;57.696;11.950;2023-03-01T09:08:48;102892.63;;;5.69;100.00
13015;BME280;6573;57.696;11.950;2023-03-01T09:11:20;102987.16;;;6.29;100.00
13015;BME280;6573;57.696;11.950;2023-03-01T09:13:49;102998.50;;;6.12;100.00
13015;BME280;6573;57.696;11.950;2023-03-01T09:16:21;103000.00;;;6.25;100.00
13015;BME280;6573;57.696;11.950;2023-03-01T09:18:51;103008.72;;;6.25;100.00
13015;BME280;6573;57.696;11.950;2023-03-01T09:21:21;102995.97;;;6.31;100.00
13015;BME280;6573;57.696;11.950;2023-03-01T09:24:06;102933.91;;;6.10;100.00
13015;BME280;6573;57.696;11.950;2023-03-01T09:26:35;102983.94;;;6.35;100.00
13015;BME280;6573;57.696;11.950;2023-03-01T09:29:03;102966.84;;;6.41;100.00
13015;BME280;6573;57.696;11.950;2023-03-01T09:31:33;102978.84;;;6.56;100.00
13015;BME280;6573;57.696;11.950;2023-03-01T09:34:01;102930.91;;;6.37;100.00
13015;BME280;6573;57.696;11.950;2023-03-01T09:36:30;102975.41;;;6.57;100.00
13015;BME280;6573;57.696;11.950;2023-03-01T09:38:59;102978.69;;;6.52;100.00
13015;BME280;6573;57.696;11.950;2023-03-01T09:41:43;102981.41;;;6.54;100.00
13015;BME280;6573;57.696;11.950;2023-03-01T09:44:31;102989.66;;;7.00;100.00
13015;BME280;6573;57.696;11.950;2023-03-01T09:47:05;102974.13;;;7.03;100.00
13015;BME280;6573;57.696;11.950;2023-03-01T09:49:35;102978.53;;;7.23;100.00
13015;BME280;6573;57.696;11.950;2023-03-01T09:52:15;102988.44;;;7.49;100.00
13015;BME280;6573;57.696;11.950;2023-03-01T09:54:49;102953.47;;;7.68;100.00
13015;BME280;6573;57.696;11.950;2023-03-01T09:57:30;102969.81;;;7.62;100.00
13015;BME280;6573;57.696;11.950;2023-03-01T10:00:17;102990.53;;;7.56;100.00
13015;BME280;6573;57.696;11.950;2023-03-01T10:02:53;102984.88;;;7.47;100.00
13015;BME280;6573;57.696;11.950;2023-03-01T10:05:36;102992.97;;;7.72;100.00
13015;BME280;6573;57.696;11.950;2023-03-01T10:08:26;102937.72;;;7.47;100.00
13015;BME280;6573;57.696;11.950;2023-03-01T10:10:58;102976.25;;;7.90;100.00
13015;BME280;6573;57.696;11.950;2023-03-01T10:13:33;102987.88;;;8.17;100.00
13015;BME280;6573;57.696;11.950;2023-03-01T10:16:09;102976.88;;;8.46;100.00
13015;BME280;6573;57.696;11.950;2023-03-01T10:18:40;102893.38;;;8.14;100.00
13015;BME280;6573;57.696;11.950;2023-03-01T10:21:14;102945.25;;;8.21;100.00
13015;BME280;6573;57.696;11.950;2023-03-01T10:23:44;102875.88;;;8.13;100.00
13015;BME280;6573;57.696;11.950;2023-03-01T10:26:25;102966.16;;;8.40;100.00
13015;BME280;6573;57.696;11.950;2023-03-01T10:29:02;102994.06;;;8.38;100.00
13015;BME280;6573;57.696;11.950;2023-03-01T10:31:40;102964.28;;;8.36;100.00
13015;BME280;6573;57.696;11.950;2023-03-01T10:34:13;102982.44;;;8.76;100.00
13015;BME280;6573;57.696;11.950;2023-03-01T10:36:43;102977.88;;;8.70;100.00
13015;BME280;6573;57.696;11.950;2023-03-01T10:39:15;102917.69;;;8.10;100.00
13015;BME280;6573;57.696;11.950;2023-03-01T10:42:01;102988.22;;;8.45;100.00
13015;BME280;6573;57.696;11.950;2023-03-01T10:44:43;102973.56;;;8.50;100.00
13015;BME280;6573;57.696;11.950;2023-03-01T10:47:15;102968.56;;;8.56;100.00
13015;BME280;6573;57.696;11.950;2023-03-01T10:49:54;102991.34;;;8.57;100.00
13015;BME280;6573;57.696;11.950;2023-03-01T10:52:28;102874.50;;;8.00;100.00
13015;BME280;6573;57.696;11.950;2023-03-01T10:54:58;102888.13;;;8.14;100.00
13015;BME280;6573;57.696;11.950;2023-03-01T10:57:38;102958.19;;;8.59;100.00
13015;BME280;6573;57.696;11.950;2023-03-01T11:00:21;102964.63;;;8.89;100.00
13015;BME280;6573;57.696;11.950;2023-03-01T11:03:12;102976.38;;;8.99;100.00
13015;BME280;6573;57.696;11.950;2023-03-01T11:06:01;102955.56;;;8.81;100.00
13015;BME280;6573;57.696;11.950;2023-03-01T11:08:35;102916.34;;;8.62;100.00
13015;BME280;6573;57.696;11.950;2023-03-01T11:11:10;102940.06;;;8.87;100.00
13015;BME280;6573;57.696;11.950;2023-03-01T11:13:58;102971.69;;;8.90;100.00
13015;BME280;6573;57.696;11.950;2023-03-01T11:16:44;102970.34;;;9.01;100.00
13015;BME280;6573;57.696;11.950;2023-03-01T11:19:19;102954.13;;;8.89;100.00
13015;BME280;6573;57.696;11.950;2023-03-01T11:22:10;102950.88;;;8.96;100.00
13015;BME280;6573;57.696;11.950;2023-03-01T11:24:43;102974.59;;;9.22;100.00
13015;BME280;6573;57.696;11.950;2023-03-01T11:27:19;102943.09;;;9.22;100.00
13015;BME280;6573;57.696;11.950;2023-03-01T11:29:53;102916.72;;;8.95;100.00
13015;BME280;6573;57.696;11.950;2023-03-01T11:32:27;102905.44;;;8.97;100.00
13015;BME280;6573;57.696;11.950;2023-03-01T11:35:02;102966.56;;;9.41;100.00
13015;BME280;6573;57.696;11.950;2023-03-01T11:37:36;102967.41;;;9.40;100.00
13015;BME280;6573;57.696;11.950;2023-03-01T11:40:13;102956.63;;;9.32;100.00
13015;BME280;6573;57.696;11.950;2023-03-01T11:42:59;102900.75;;;9.13;100.00
13015;BME280;6573;57.696;11.950;2023-03-01T11:45:38;102925.06;;;9.56;100.00
13015;BME280;6573;57.696;11.950;2023-03-01T11:48:23;102944.00;;;9.96;100.00
13015;BME280;6573;57.696;11.950;2023-03-01T11:51:05;102940.09;;;9.85;100.00
13015;BME280;6573;57.696;11.950;2023-03-01T11:53:55;102936.84;;;9.92;100.00
13015;BME280;6573;57.696;11.950;2023-03-01T11:56:32;102858.13;;;9.45;100.00
13015;BME280;6573;57.696;11.950;2023-03-01T11:59:30;102865.97;;;9.70;100.00
13015;BME280;6573;57.696;11.950;2023-03-01T12:02:21;102945.16;;;10.29;100.00
13015;BME280;6573;57.696;11.950;2023-03-01T12:05:08;102921.56;;;10.07;100.00
13015;BME280;6573;57.696;11.950;2023-03-01T12:07:46;102867.13;;;9.78;100.00
13015;BME280;6573;57.696;11.950;2023-03-01T12:10:25;102927.47;;;10.25;100.00
13015;BME280;6573;57.696;11.950;2023-03-01T12:13:08;102924.03;;;10.28;100.00
13015;BME280;6573;57.696;11.950;2023-03-01T12:15:57;102932.19;;;10.10;100.00
13015;BME280;6573;57.696;11.950;2023-03-01T12:21:35;102927.19;;;10.16;100.00
13015;BME280;6573;57.696;11.950;2023-03-01T12:24:26;102890.50;;;9.96;100.00
13015;BME280;6573;57.696;11.950;2023-03-01T12:27:13;102823.34;;;9.52;100.00
13015;BME280;6573;57.696;11.950;2023-03-01T12:29:59;102932.31;;;10.13;100.00
13015;BME280;6573;57.696;11.950;2023-03-01T12:32:40;102810.63;;;9.39;100.00
13015;BME280;6573;57.696;11.950;2023-03-01T12:35:34;102872.06;;;9.94;100.00
13015;BME280;6573;57.696;11.950;2023-03-01T12:38:29;102913.75;;;10.09;100.00
13015;BME280;6573;57.696;11.950;2023-03-01T12:41:15;102910.84;;;10.01;100.00
13015;BME280;6573;57.696;11.950;2023-03-01T12:43:59;102832.00;;;9.74;100.00
13015;BME280;6573;57.696;11.950;2023-03-01T12:46:42;102910.59;;;10.19;100.00
13015;BME280;6573;57.696;11.950;2023-03-01T12:49:21;102881.28;;;10.08;100.00
13015;BME280;6573;57.696;11.950;2023-03-01T12:51:56;102855.25;;;9.89;100.00
13015;BME280;6573;57.696;11.950;2023-03-01T12:54:29;102876.13;;;10.11;100.00
13015;BME280;6573;57.696;11.950;2023-03-01T12:57:06;102895.09;;;10.28;100.00
13015;BME280;6573;57.696;11.950;2023-03-01T12:59:42;102897.00;;;10.32;100.00
13015;BME280;6573;57.696;11.950;2023-03-01T13:02:17;102899.47;;;10.27;100.00
13015;BME280;6573;57.696;11.950;2023-03-01T13:05:01;102894.69;;;10.43;100.00
13015;BME280;6573;57.696;11.950;2023-03-01T13:07:38;102889.88;;;10.58;100.00
13015;BME280;6573;57.696;11.950;2023-03-01T13:10:20;102884.81;;;10.35;100.00
13015;BME280;6573;57.696;11.950;2023-03-01T13:13:00;102877.03;;;10.38;100.00
13015;BME280;6573;57.696;11.950;2023-03-01T13:15:35;102887.72;;;10.45;100.00
13015;BME280;6573;57.696;11.950;2023-03-01T13:18:27;102866.59;;;10.42;100.00
13015;BME280;6573;57.696;11.950;2023-03-01T13:21:01;102843.19;;;10.22;100.00
13015;BME280;6573;57.696;11.950;2023-03-01T13:23:33;102854.00;;;10.31;100.00
13015;BME280;6573;57.696;11.950;2023-03-01T13:26:14;102868.47;;;10.46;100.00